Time;durP1;ratioP1;P1;durP2;ratioP2;P2;SDS_P1;SDS_P2;PMS_P1;PMS_P2;Temp;Humidity;BMP_temperature;BMP_pressure;BME280_temperature;BME280_humidity;BME280_pressure;Samples;Min_cycle;Max_cycle;Signal;HPM_P1;HPM_P2
2022/01/23 00:02:34;;;;;;;;;;;;;;;-17.58;53.39;98195.34;6347393;28;19924;-63
2022/01/23 00:05:38;;;;;;;;;;;;;;;-17.62;53.33;98203.47;6346410;28;19924;-64
2022/01/23 00:08:42;;;;;;;;;;;;;;;-17.65;52.93;98209.16;6346712;28;19930;-63
2022/01/23 00:11:52;;;;;;;;;;;;;;;-17.72;53.34;98215.41;6347074;28;19923;-64
2022/01/23 00:18:13;;;;;;;;;;;;;;;-17.79;54.11;98220.84;6347238;28;19931;-63
2022/01/23 00:21:14;;;;;;;;;;;;;;;-17.80;53.87;98224.16;6328363;28;20026;-63
2022/01/23 00:31:00;;;;;;;;;;;;;;;-17.89;53.53;98228.53;6346859;28;19923;-63
2022/01/23 00:34:01;;;;;;;;;;;;;;;-17.92;54.01;98233.34;6346739;28;19931;-62
2022/01/23 00:37:02;;;;;;;;;;;;;;;-17.95;54.71;98233.16;6346821;28;19924;-63
2022/01/23 00:40:04;;;;;;;;;;;;;;;-17.96;54.70;98232.28;6346674;28;19924;-61
2022/01/23 00:43:25;;;;;;;;;;;;;;;-17.98;54.71;98243.00;6346565;28;19924;-63
2022/01/23 00:46:33;;;;;;;;;;;;;;;-17.99;53.68;98241.28;6345897;28;20018;-63
2022/01/23 00:49:34;;;;;;;;;;;;;;;-18.03;53.67;98234.28;6345858;28;19931;-63
2022/01/23 00:52:35;;;;;;;;;;;;;;;-18.05;53.82;98238.34;6345778;28;19919;-63
2022/01/23 00:55:40;;;;;;;;;;;;;;;-18.05;54.48;98235.84;6345688;28;20380;-64
2022/01/23 00:58:42;;;;;;;;;;;;;;;-18.06;54.88;98239.09;6346670;28;19924;-63
2022/01/23 01:01:45;;;;;;;;;;;;;;;-18.05;54.55;98231.69;6345774;28;19928;-63
2022/01/23 01:04:49;;;;;;;;;;;;;;;-18.07;54.41;98227.31;6327970;28;19927;-63
2022/01/23 01:07:52;;;;;;;;;;;;;;;-18.12;54.07;98222.84;6346325;28;19924;-64
2022/01/23 01:11:48;;;;;;;;;;;;;;;-18.13;54.84;98227.78;6346100;28;19927;-64
2022/01/23 01:30:44;;;;;;;;;;;;;;;-18.20;54.90;98226.50;6351307;28;19923;-62
2022/01/23 01:36:51;;;;;;;;;;;;;;;-18.08;56.22;98235.59;6350079;28;20419;-62
2022/01/23 01:39:54;;;;;;;;;;;;;;;-18.02;55.40;98241.94;6350087;28;20408;-63
2022/01/23 01:42:56;;;;;;;;;;;;;;;-17.98;56.19;98237.97;6350673;28;19930;-63
2022/01/23 01:45:57;;;;;;;;;;;;;;;-17.92;55.51;98233.34;6349610;28;19930;-63
2022/01/23 01:49:00;;;;;;;;;;;;;;;-17.91;55.70;98235.13;6350962;28;20014;-63
2022/01/23 01:52:03;;;;;;;;;;;;;;;-17.92;55.50;98233.34;6349987;28;19924;-63
2022/01/23 01:55:07;;;;;;;;;;;;;;;-17.97;55.98;98238.09;6349684;28;19923;-63
2022/01/23 01:58:32;;;;;;;;;;;;;;;-18.00;57.05;98234.47;6349694;28;19938;-64
2022/01/23 02:11:18;;;;;;;;;;;;;;;-18.07;55.93;98238.22;6350198;28;19924;-63
2022/01/23 02:18:14;;;;;;;;;;;;;;;-18.07;55.24;98232.34;6350122;28;20405;-63
2022/01/23 02:25:12;;;;;;;;;;;;;;;-18.29;54.67;98233.38;6349866;28;19923;-62
2022/01/23 02:55:09;;;;;;;;;;;;;;;-18.49;55.13;98258.78;6246128;28;20373;-62
2022/01/23 02:58:16;;;;;;;;;;;;;;;-18.51;55.20;98260.28;6331349;28;20396;-63
2022/01/23 03:01:19;;;;;;;;;;;;;;;-18.57;55.13;98264.16;6348751;28;19930;-63
2022/01/23 03:04:22;;;;;;;;;;;;;;;-18.62;55.09;98260.44;6348591;28;20407;-63
2022/01/23 03:07:52;;;;;;;;;;;;;;;-18.65;55.15;98264.34;6348928;28;19924;-63
2022/01/23 03:11:03;;;;;;;;;;;;;;;-18.65;55.00;98267.75;6348146;28;20322;-62
2022/01/23 03:14:25;;;;;;;;;;;;;;;-18.66;54.76;98265.13;6348209;28;19924;-63
2022/01/23 03:24:39;;;;;;;;;;;;;;;-18.41;55.32;98272.72;6348650;28;19924;-63
2022/01/23 03:30:51;;;;;;;;;;;;;;;-18.24;54.95;98274.78;6347717;28;19923;-63
2022/01/23 03:33:52;;;;;;;;;;;;;;;-18.17;55.52;98276.94;6347456;28;19924;-62
2022/01/23 03:36:54;;;;;;;;;;;;;;;-18.16;54.97;98277.81;6347278;28;20399;-63
2022/01/23 03:39:55;;;;;;;;;;;;;;;-18.19;55.67;98277.59;6347695;28;19931;-62
2022/01/23 03:43:07;;;;;;;;;;;;;;;-18.21;54.74;98269.94;6347235;28;19924;-63
2022/01/23 03:49:33;;;;;;;;;;;;;;;-18.23;54.63;98276.50;6347861;28;19924;-63
2022/01/23 03:52:36;;;;;;;;;;;;;;;-18.23;54.82;98286.56;6347194;28;20014;-61
2022/01/23 03:55:38;;;;;;;;;;;;;;;-18.25;55.04;98297.28;6347278;28;19956;-63
2022/01/23 03:58:39;;;;;;;;;;;;;;;-18.27;57.02;98299.69;6347241;28;19923;-63
2022/01/23 04:01:42;;;;;;;;;;;;;;;-18.25;57.56;98312.34;6347420;28;19924;-64
2022/01/23 04:04:45;;;;;;;;;;;;;;;-18.17;56.90;98312.13;6346921;28;20417;-63
2022/01/23 04:07:49;;;;;;;;;;;;;;;-18.14;56.51;98312.31;6347114;28;19924;-63
2022/01/23 04:10:53;;;;;;;;;;;;;;;-18.13;56.00;98316.56;6346241;28;19924;-63
2022/01/23 04:14:03;;;;;;;;;;;;;;;-18.13;56.58;98311.56;6347023;28;19924;-64
2022/01/23 04:17:40;;;;;;;;;;;;;;;-18.07;55.75;98317.78;6346547;28;19950;-63
2022/01/23 04:33:49;;;;;;;;;;;;;;;-17.42;56.91;98323.84;6346918;28;19923;-63
2022/01/23 05:00:04;;;;;;;;;;;;;;;-15.98;53.81;98338.06;6346069;28;19927;-65
2022/01/23 05:04:06;;;;;;;;;;;;;;;-15.69;52.84;98332.25;6345684;28;19968;-64
2022/01/23 05:06:43;;;;;;;;;;;;;;;-15.31;52.82;98327.72;6343994;28;20327;-64
2022/01/23 05:09:47;;;;;;;;;;;;;;;-14.94;51.33;98334.16;6346509;28;19924;-63
2022/01/23 05:12:48;;;;;;;;;;;;;;;-14.64;51.19;98340.84;6327487;28;19931;-64
2022/01/23 05:15:49;;;;;;;;;;;;;;;-14.26;52.44;98342.97;6345474;28;19955;-64
2022/01/23 05:18:53;;;;;;;;;;;;;;;-13.87;51.87;98346.81;6345935;28;20456;-63
2022/01/23 05:25:14;;;;;;;;;;;;;;;-13.09;51.06;98344.91;6345579;28;19927;-64
2022/01/23 05:28:15;;;;;;;;;;;;;;;-12.74;51.24;98351.72;6346074;28;19926;-63
2022/01/23 05:31:16;;;;;;;;;;;;;;;-12.41;51.07;98349.13;6345698;28;19959;-64
2022/01/23 05:34:23;;;;;;;;;;;;;;;-12.13;50.64;98360.59;6345353;28;19923;-63
2022/01/23 05:37:24;;;;;;;;;;;;;;;-11.85;49.25;98350.91;6345281;28;19924;-63
2022/01/23 05:40:28;;;;;;;;;;;;;;;-11.71;48.77;98360.84;6345853;28;19941;-63
2022/01/23 05:43:33;;;;;;;;;;;;;;;-11.60;48.72;98379.97;6346036;28;20429;-63
2022/01/23 05:46:34;;;;;;;;;;;;;;;-11.47;48.33;98384.78;6345109;28;19920;-63
2022/01/23 05:49:36;;;;;;;;;;;;;;;-11.44;48.27;98387.47;6345708;28;19931;-64
2022/01/23 05:52:37;;;;;;;;;;;;;;;-11.37;48.03;98378.47;6345234;28;20309;-63
2022/01/23 05:55:41;;;;;;;;;;;;;;;-11.23;48.45;98386.72;6345260;28;20379;-63
2022/01/23 05:58:42;;;;;;;;;;;;;;;-11.05;48.78;98390.06;6344542;28;19924;-64
2022/01/23 06:01:43;;;;;;;;;;;;;;;-10.80;48.97;98389.44;6344616;28;19931;-63
2022/01/23 06:04:44;;;;;;;;;;;;;;;-10.50;48.82;98400.06;6344694;28;19923;-63
2022/01/23 06:07:50;;;;;;;;;;;;;;;-10.08;47.39;98400.03;6345564;28;19924;-63
2022/01/23 06:10:56;;;;;;;;;;;;;;;-9.70;46.80;98397.28;6348347;28;19934;-63
2022/01/23 06:13:59;;;;;;;;;;;;;;;-9.43;46.50;98407.66;6349750;28;20432;-63
2022/01/23 06:17:02;;;;;;;;;;;;;;;-9.29;46.49;98407.34;6349069;28;19923;-64
2022/01/23 06:20:07;;;;;;;;;;;;;;;-9.06;46.35;98415.88;6349914;28;19924;-63
2022/01/23 06:23:08;;;;;;;;;;;;;;;-8.85;46.15;98420.03;6331048;28;20316;-64
2022/01/23 06:26:09;;;;;;;;;;;;;;;-8.67;46.15;98430.00;6349133;28;19924;-63
2022/01/23 06:29:11;;;;;;;;;;;;;;;-8.64;45.62;98415.66;6348833;28;19923;-63
2022/01/23 06:32:15;;;;;;;;;;;;;;;-8.56;45.71;98415.94;6349393;28;19924;-63
2022/01/23 06:35:18;;;;;;;;;;;;;;;-8.54;45.94;98410.91;6349325;28;19923;-64
2022/01/23 06:38:22;;;;;;;;;;;;;;;-8.55;45.37;98429.56;6348941;28;19930;-63
2022/01/23 06:41:26;;;;;;;;;;;;;;;-8.55;46.42;98421.91;6349389;28;20284;-63
2022/01/23 06:44:27;;;;;;;;;;;;;;;-8.41;46.07;98413.06;6348879;28;19923;-64
2022/01/23 06:47:28;;;;;;;;;;;;;;;-8.15;45.32;98422.44;6349164;28;19923;-63
2022/01/23 06:50:29;;;;;;;;;;;;;;;-7.95;44.34;98422.25;6349092;28;20004;-64
2022/01/23 06:53:32;;;;;;;;;;;;;;;-7.80;43.95;98415.06;6348986;28;20285;-63
2022/01/23 06:56:36;;;;;;;;;;;;;;;-7.40;44.56;98425.66;6348914;28;19928;-63
2022/01/23 06:59:37;;;;;;;;;;;;;;;-5.42;42.93;98442.94;6347790;28;20351;-63
2022/01/23 07:02:40;;;;;;;;;;;;;;;-2.51;37.57;98448.94;6348785;28;19928;-63
2022/01/23 07:05:43;;;;;;;;;;;;;;;0.53;31.72;98448.25;6330848;28;19919;-64
2022/01/23 07:08:44;;;;;;;;;;;;;;;3.17;30.92;98452.19;6348780;28;20304;-64
2022/01/23 07:11:48;;;;;;;;;;;;;;;5.25;24.91;98446.63;6348738;28;20416;-63
2022/01/23 07:14:51;;;;;;;;;;;;;;;6.77;23.77;98450.41;6348612;28;19923;-64
2022/01/23 07:17:55;;;;;;;;;;;;;;;7.77;22.53;98456.50;6348525;28;20030;-64
2022/01/23 07:20:57;;;;;;;;;;;;;;;7.35;22.15;98459.38;6347405;28;20389;-65
2022/01/23 07:24:00;;;;;;;;;;;;;;;6.68;22.88;98457.59;6348292;28;20060;-66
2022/01/23 07:27:13;;;;;;;;;;;;;;;6.04;25.64;98464.25;6346917;28;19923;-64
2022/01/23 07:33:29;;;;;;;;;;;;;;;5.30;30.82;98459.59;6347897;28;19997;-64
2022/01/23 07:36:30;;;;;;;;;;;;;;;5.63;29.60;98464.19;6347304;28;19924;-63
2022/01/23 07:39:31;;;;;;;;;;;;;;;6.13;31.27;98464.06;6347117;28;19923;-65
2022/01/23 07:42:34;;;;;;;;;;;;;;;6.54;30.09;98464.91;6347915;28;19928;-66
2022/01/23 07:45:35;;;;;;;;;;;;;;;6.69;30.62;98458.44;6347213;28;20072;-64
2022/01/23 07:48:41;;;;;;;;;;;;;;;5.99;25.47;98463.50;6347736;28;19924;-64
2022/01/23 07:51:44;;;;;;;;;;;;;;;5.44;24.77;98461.97;6347654;28;19923;-64
2022/01/23 07:54:45;;;;;;;;;;;;;;;5.60;24.02;98464.25;6347381;28;20008;-64
2022/01/23 07:57:52;;;;;;;;;;;;;;;6.58;27.15;98474.38;6346763;28;19924;-64
2022/01/23 08:00:53;;;;;;;;;;;;;;;7.31;29.35;98478.72;6347433;28;20314;-65
2022/01/23 08:03:54;;;;;;;;;;;;;;;7.88;29.02;98480.63;6347171;28;19927;-64
2022/01/23 08:07:21;;;;;;;;;;;;;;;8.41;28.65;98473.00;6347312;28;19923;-64
2022/01/23 08:10:22;;;;;;;;;;;;;;;9.19;28.13;98472.25;6346791;28;20452;-64
2022/01/23 08:13:25;;;;;;;;;;;;;;;10.19;26.47;98480.06;6347021;28;19924;-64
2022/01/23 08:16:27;;;;;;;;;;;;;;;10.74;23.52;98467.41;6345942;28;19968;-64
2022/01/23 08:19:28;;;;;;;;;;;;;;;10.97;21.22;98473.53;6328321;28;20449;-63
2022/01/23 08:22:30;;;;;;;;;;;;;;;12.15;18.58;98465.81;6346456;28;19923;-64
2022/01/23 08:25:33;;;;;;;;;;;;;;;13.80;17.74;98472.72;6345392;28;19924;-64
2022/01/23 08:28:34;;;;;;;;;;;;;;;15.07;18.31;98472.00;6346858;28;19923;-65
2022/01/23 08:31:35;;;;;;;;;;;;;;;16.12;17.68;98478.13;6345853;28;20420;-63
2022/01/23 08:34:37;;;;;;;;;;;;;;;16.95;16.66;98468.41;6346664;28;19942;-64
2022/01/23 08:37:38;;;;;;;;;;;;;;;17.76;18.07;98470.13;6346222;28;19924;-64
2022/01/23 08:43:49;;;;;;;;;;;;;;;18.89;13.18;98455.06;6346704;28;20026;-64
2022/01/23 08:46:50;;;;;;;;;;;;;;;19.19;15.32;98458.16;6345308;28;19923;-64
2022/01/23 08:49:51;;;;;;;;;;;;;;;19.59;17.95;98459.59;6345463;28;19924;-64
2022/01/23 08:52:55;;;;;;;;;;;;;;;19.87;12.94;98448.53;6346188;28;19923;-64
2022/01/23 08:55:56;;;;;;;;;;;;;;;20.10;18.03;98459.25;6345119;28;20069;-63
2022/01/23 08:58:57;;;;;;;;;;;;;;;19.94;17.92;98454.25;6327689;28;19931;-64
2022/01/23 09:02:01;;;;;;;;;;;;;;;19.79;18.33;98447.41;6346062;28;19923;-64
2022/01/23 09:05:02;;;;;;;;;;;;;;;19.72;18.80;98461.22;6344554;28;19930;-63
2022/01/23 09:08:06;;;;;;;;;;;;;;;19.58;19.16;98458.75;6346097;28;19924;-64
2022/01/23 09:11:12;;;;;;;;;;;;;;;19.38;19.21;98456.75;6344665;28;19924;-63
2022/01/23 09:14:14;;;;;;;;;;;;;;;19.14;19.25;98454.13;6345280;28;20417;-64
2022/01/23 09:17:18;;;;;;;;;;;;;;;18.87;19.28;98451.66;6345987;28;20348;-64
2022/01/23 09:20:22;;;;;;;;;;;;;;;18.80;18.88;98452.13;6345872;28;19923;-65
2022/01/23 09:23:25;;;;;;;;;;;;;;;18.75;20.00;98443.59;6345088;28;19924;-64
2022/01/23 09:26:29;;;;;;;;;;;;;;;18.58;19.61;98454.59;6345782;28;19924;-63
2022/01/23 09:29:35;;;;;;;;;;;;;;;17.89;19.82;98459.47;6344777;28;19924;-64
2022/01/23 09:32:38;;;;;;;;;;;;;;;17.04;20.49;98456.31;6345441;28;19924;-64
2022/01/23 09:35:39;;;;;;;;;;;;;;;17.06;18.30;98457.94;6326796;28;19923;-64
2022/01/23 09:38:40;;;;;;;;;;;;;;;16.51;20.09;98466.81;6344441;28;20023;-64
2022/01/23 09:41:46;;;;;;;;;;;;;;;14.19;21.96;98460.97;6344687;28;19919;-63
2022/01/23 09:44:51;;;;;;;;;;;;;;;12.69;22.60;98455.38;6347989;28;19923;-63
2022/01/23 09:47:54;;;;;;;;;;;;;;;12.23;22.02;98458.41;6349820;28;19919;-63
2022/01/23 09:50:58;;;;;;;;;;;;;;;12.00;20.49;98456.84;6350514;28;20345;-65
2022/01/23 09:53:59;;;;;;;;;;;;;;;11.94;22.37;98464.16;6349993;28;20289;-63
2022/01/23 09:57:04;;;;;;;;;;;;;;;11.52;22.14;98462.44;6349766;28;19924;-64
2022/01/23 10:00:07;;;;;;;;;;;;;;;11.00;22.31;98457.59;6350174;28;20065;-65
2022/01/23 10:03:11;;;;;;;;;;;;;;;11.12;22.24;98470.25;6350387;28;20005;-65
2022/01/23 10:06:12;;;;;;;;;;;;;;;11.54;21.63;98463.25;6350307;28;20337;-64
2022/01/23 10:09:14;;;;;;;;;;;;;;;11.99;20.95;98472.72;6349900;28;20400;-65
2022/01/23 10:12:17;;;;;;;;;;;;;;;12.51;19.38;98476.47;6349903;28;19965;-63
2022/01/23 10:15:25;;;;;;;;;;;;;;;12.98;18.55;98464.53;6349749;28;19931;-62
2022/01/23 10:18:27;;;;;;;;;;;;;;;13.28;17.95;98469.28;6348607;28;19923;-64
2022/01/23 10:21:28;;;;;;;;;;;;;;;13.29;18.62;98477.09;6331767;28;20309;-64
2022/01/23 10:24:29;;;;;;;;;;;;;;;12.88;17.19;98479.09;6349177;28;19931;-63
2022/01/23 10:27:49;;;;;;;;;;;;;;;12.22;16.52;98477.78;6349070;28;19924;-63
2022/01/23 10:30:56;;;;;;;;;;;;;;;11.20;17.12;98478.69;6349585;28;19924;-64
2022/01/23 10:33:59;;;;;;;;;;;;;;;10.42;18.81;98483.63;6349616;28;19927;-64
2022/01/23 10:37:01;;;;;;;;;;;;;;;10.26;19.83;98493.84;6349680;28;20038;-64
2022/01/23 10:40:09;;;;;;;;;;;;;;;10.24;20.58;98493.88;6348476;28;20416;-64
2022/01/23 10:46:52;;;;;;;;;;;;;;;8.07;22.15;98502.81;6349295;28;20305;-64
2022/01/23 10:50:00;;;;;;;;;;;;;;;5.15;23.68;98490.31;6348797;28;19923;-63
2022/01/23 10:53:06;;;;;;;;;;;;;;;2.97;27.54;98487.03;6349146;28;19930;-64
2022/01/23 10:56:07;;;;;;;;;;;;;;;1.47;29.63;98493.06;6347511;28;19946;-63
2022/01/23 10:59:10;;;;;;;;;;;;;;;0.34;29.54;98497.47;6329888;28;20290;-63
2022/01/23 11:02:21;;;;;;;;;;;;;;;-0.47;30.75;98510.97;6348798;28;19950;-64
2022/01/23 11:05:36;;;;;;;;;;;;;;;-1.07;31.76;98501.97;6330677;28;20284;-65
2022/01/23 11:08:37;;;;;;;;;;;;;;;-1.50;31.21;98498.16;6330448;28;19985;-65
2022/01/23 11:11:47;;;;;;;;;;;;;;;-1.85;32.09;98509.00;6345916;28;19975;-64
2022/01/23 11:18:29;;;;;;;;;;;;;;;-2.66;31.86;98511.47;6344682;28;19923;-64
2022/01/23 11:21:34;;;;;;;;;;;;;;;-3.17;32.88;98503.00;6347506;28;20408;-61
2022/01/23 11:24:42;;;;;;;;;;;;;;;-3.59;33.32;98507.41;6345766;28;19923;-63
2022/01/23 11:27:43;;;;;;;;;;;;;;;-4.02;33.38;98511.78;6340985;27;19965;-63
2022/01/23 11:30:48;;;;;;;;;;;;;;;-4.47;33.97;98515.16;6341465;28;20397;-67
2022/01/23 11:33:55;;;;;;;;;;;;;;;-4.85;33.89;98503.25;6342556;28;19924;-62
2022/01/23 11:36:59;;;;;;;;;;;;;;;-5.20;34.70;98497.31;6332624;28;19924;-62
2022/01/23 11:40:07;;;;;;;;;;;;;;;-5.51;34.39;98501.72;6312361;28;19928;-62
2022/01/23 11:53:58;;;;;;;;;;;;;;;-7.17;36.13;98497.97;6240410;28;19929;-61
2022/01/23 11:57:02;;;;;;;;;;;;;;;-7.50;35.85;98506.31;6250484;28;19925;-66
2022/01/23 12:00:06;;;;;;;;;;;;;;;-7.94;38.50;98511.69;6337924;28;19924;-65
2022/01/23 12:03:17;;;;;;;;;;;;;;;-8.15;37.34;98506.72;6328350;28;19924;-65
2022/01/23 12:06:20;;;;;;;;;;;;;;;-8.29;36.91;98515.59;6326190;28;19923;-66
2022/01/23 12:09:24;;;;;;;;;;;;;;;-8.49;37.57;98516.56;6326719;28;20422;-66
2022/01/23 12:18:52;;;;;;;;;;;;;;;-8.96;42.56;98541.19;6338584;27;19977;-65
2022/01/23 12:21:58;;;;;;;;;;;;;;;-9.13;39.98;98536.31;6342276;28;19924;-66
2022/01/23 12:25:06;;;;;;;;;;;;;;;-9.27;38.72;98542.53;6324694;28;19943;-66
2022/01/23 12:28:08;;;;;;;;;;;;;;;-9.50;38.31;98539.94;6322059;28;19946;-63
2022/01/23 12:31:15;;;;;;;;;;;;;;;-9.73;38.66;98540.69;6328018;28;20422;-62
2022/01/23 12:34:16;;;;;;;;;;;;;;;-9.96;38.99;98547.38;6331692;28;19920;-65
2022/01/23 12:37:20;;;;;;;;;;;;;;;-10.14;38.79;98554.22;6328153;28;19936;-66
2022/01/23 12:40:26;;;;;;;;;;;;;;;-10.34;39.29;98559.31;6323897;28;19923;-64
2022/01/23 12:43:35;;;;;;;;;;;;;;;-10.55;41.80;98561.81;6331209;28;19924;-65
2022/01/23 12:46:36;;;;;;;;;;;;;;;-10.71;41.74;98572.06;6325978;28;19951;-65
2022/01/23 12:49:47;;;;;;;;;;;;;;;-10.83;39.90;98576.63;6326554;28;20317;-65
2022/01/23 12:52:51;;;;;;;;;;;;;;;-11.03;39.73;98563.84;6321105;28;20390;-65
2022/01/23 12:56:06;;;;;;;;;;;;;;;-11.17;39.98;98564.88;6323156;28;19930;-65
2022/01/23 12:59:11;;;;;;;;;;;;;;;-11.35;43.89;98570.81;6327184;28;19930;-63
2022/01/23 13:02:16;;;;;;;;;;;;;;;-11.44;40.64;98580.53;6325624;28;19924;-64
2022/01/23 13:05:20;;;;;;;;;;;;;;;-11.57;41.06;98584.16;6325236;28;19924;-63
2022/01/23 13:08:28;;;;;;;;;;;;;;;-11.69;41.31;98587.72;6319902;28;19924;-64
2022/01/23 13:11:54;;;;;;;;;;;;;;;-11.80;40.62;98593.16;6323064;28;20397;-65
2022/01/23 13:15:14;;;;;;;;;;;;;;;-12.07;40.90;98581.66;6327498;28;20011;-64
2022/01/23 13:31:41;;;;;;;;;;;;;;;-12.52;42.72;98581.00;6337763;28;20293;-65
2022/01/23 13:34:50;;;;;;;;;;;;;;;-12.56;44.21;98581.66;6328508;28;19928;-64
2022/01/23 13:37:57;;;;;;;;;;;;;;;-12.62;48.35;98589.81;6337379;28;19923;-64
2022/01/23 13:41:06;;;;;;;;;;;;;;;-12.63;48.03;98584.66;6333663;28;19975;-64
2022/01/23 14:00:37;;;;;;;;;;;;;;;-13.23;43.42;98577.22;6333209;28;19924;-64
2022/01/23 14:03:43;;;;;;;;;;;;;;;-13.33;45.63;98567.41;6327424;28;19924;-65
2022/01/23 14:06:47;;;;;;;;;;;;;;;-13.41;43.29;98566.97;6330641;28;19928;-64
2022/01/23 14:09:48;;;;;;;;;;;;;;;-13.49;44.74;98569.88;6344343;28;19925;-65
2022/01/23 14:12:50;;;;;;;;;;;;;;;-13.57;46.05;98572.84;6342428;28;20324;-66
2022/01/23 14:15:52;;;;;;;;;;;;;;;-13.60;45.85;98572.66;6323489;28;19931;-64
2022/01/23 14:19:11;;;;;;;;;;;;;;;-13.66;46.00;98577.38;6327925;28;20308;-64
2022/01/23 14:22:12;;;;;;;;;;;;;;;-13.74;46.30;98576.06;6326850;28;19924;-65
2022/01/23 14:25:13;;;;;;;;;;;;;;;-13.80;47.65;98573.19;6338820;28;20456;-64
2022/01/23 14:28:16;;;;;;;;;;;;;;;-13.86;47.19;98570.31;6327301;28;19971;-64
2022/01/23 14:31:22;;;;;;;;;;;;;;;-13.94;46.09;98579.13;6323044;28;19924;-65
2022/01/23 14:34:24;;;;;;;;;;;;;;;-14.04;45.94;98578.59;6327329;27;19939;-64
2022/01/23 14:37:27;;;;;;;;;;;;;;;-14.12;44.43;98586.53;6338348;27;19923;-64
2022/01/23 14:40:28;;;;;;;;;;;;;;;-14.22;47.29;98591.81;6333884;27;19931;-64
2022/01/23 14:43:47;;;;;;;;;;;;;;;-14.31;48.00;98608.19;6334903;28;20011;-64
2022/01/23 14:46:49;;;;;;;;;;;;;;;-14.36;48.03;98603.63;6335589;28;19923;-64
2022/01/23 14:49:58;;;;;;;;;;;;;;;-14.39;47.71;98604.31;6335579;28;19924;-64
2022/01/23 14:53:19;;;;;;;;;;;;;;;-14.43;45.45;98611.63;6325471;28;19931;-64
2022/01/23 14:56:20;;;;;;;;;;;;;;;-14.53;44.01;98610.22;6331575;28;20282;-64
2022/01/23 14:59:22;;;;;;;;;;;;;;;-14.66;44.03;98627.94;6336222;28;19924;-64
2022/01/23 15:02:23;;;;;;;;;;;;;;;-14.79;44.32;98629.72;6324678;28;20394;-63
2022/01/23 15:05:24;;;;;;;;;;;;;;;-14.88;44.63;98640.94;6336143;28;19953;-63
2022/01/23 15:08:26;;;;;;;;;;;;;;;-14.83;44.59;98645.50;6332863;28;20032;-65
2022/01/23 15:11:27;;;;;;;;;;;;;;;-14.85;45.28;98646.16;6333951;28;19928;-65
2022/01/23 15:14:29;;;;;;;;;;;;;;;-14.87;45.92;98648.59;6333111;28;19927;-64
2022/01/23 15:17:32;;;;;;;;;;;;;;;-15.02;46.24;98658.59;6332329;28;19923;-64
2022/01/23 15:20:36;;;;;;;;;;;;;;;-15.20;46.41;98652.38;6335745;28;19924;-63
2022/01/23 15:23:41;;;;;;;;;;;;;;;-15.33;46.66;98654.91;6340144;28;20369;-64
2022/01/23 15:26:44;;;;;;;;;;;;;;;-15.43;46.49;98654.28;6334357;28;19924;-64
2022/01/23 15:29:45;;;;;;;;;;;;;;;-15.50;47.42;98657.22;6329064;28;19924;-64
2022/01/23 15:32:47;;;;;;;;;;;;;;;-15.48;50.01;98654.78;6330637;28;19924;-64
2022/01/23 15:35:48;;;;;;;;;;;;;;;-15.46;49.61;98638.97;6324820;28;19931;-65
2022/01/23 15:38:51;;;;;;;;;;;;;;;-15.44;50.31;98642.47;6331327;28;19928;-65
2022/01/23 15:41:58;;;;;;;;;;;;;;;-15.41;51.14;98642.66;6331591;28;19923;-65
2022/01/23 15:45:01;;;;;;;;;;;;;;;-15.38;48.31;98627.72;6335927;27;19923;-63
2022/01/23 15:48:06;;;;;;;;;;;;;;;-15.37;46.73;98638.66;6329842;28;20393;-64
2022/01/23 15:51:07;;;;;;;;;;;;;;;-15.39;46.92;98630.16;6333660;28;19924;-64
2022/01/23 15:54:08;;;;;;;;;;;;;;;-15.41;47.44;98632.56;6333855;28;20305;-65
2022/01/23 15:57:09;;;;;;;;;;;;;;;-15.39;48.40;98641.13;6343363;28;20014;-64
2022/01/23 16:00:11;;;;;;;;;;;;;;;-15.36;48.12;98624.44;6332344;28;19924;-64
2022/01/23 16:03:12;;;;;;;;;;;;;;;-15.38;50.44;98627.72;6339179;28;19923;-64
2022/01/23 16:06:15;;;;;;;;;;;;;;;-15.36;49.75;98619.38;6333299;28;19955;-65
2022/01/23 16:09:16;;;;;;;;;;;;;;;-15.37;49.12;98615.97;6333489;28;20022;-65
2022/01/23 16:12:18;;;;;;;;;;;;;;;-15.40;49.43;98614.13;6331083;27;20028;-63
2022/01/23 16:15:20;;;;;;;;;;;;;;;-15.46;51.33;98608.69;6318184;28;20431;-65
2022/01/23 16:18:22;;;;;;;;;;;;;;;-15.48;51.80;98599.25;6323542;28;20397;-63
2022/01/23 16:21:25;;;;;;;;;;;;;;;-15.50;52.84;98600.81;6323931;28;19924;-64
2022/01/23 16:24:28;;;;;;;;;;;;;;;-15.53;51.12;98601.50;6320765;28;20030;-64
2022/01/23 16:27:29;;;;;;;;;;;;;;;-15.56;48.61;98601.31;6334725;28;19961;-65
2022/01/23 16:30:45;;;;;;;;;;;;;;;-15.65;50.84;98605.75;6321724;28;20018;-63
2022/01/23 16:33:46;;;;;;;;;;;;;;;-15.71;51.19;98590.25;6334574;28;19924;-64
2022/01/23 16:36:50;;;;;;;;;;;;;;;-15.74;50.39;98595.97;6332066;28;20418;-65
2022/01/23 16:39:51;;;;;;;;;;;;;;;-15.76;48.92;98592.50;6324220;28;19928;-65
2022/01/23 16:42:52;;;;;;;;;;;;;;;-15.77;51.24;98584.81;6326780;28;19927;-65
2022/01/23 16:45:54;;;;;;;;;;;;;;;-15.71;50.86;98590.25;6332121;28;19924;-64
2022/01/23 16:48:55;;;;;;;;;;;;;;;-15.64;48.95;98587.31;6316592;28;19931;-64
2022/01/23 16:51:56;;;;;;;;;;;;;;;-15.58;48.21;98592.75;6337227;28;19923;-64
2022/01/23 16:54:57;;;;;;;;;;;;;;;-15.64;47.70;98594.91;6327648;28;19930;-64
2022/01/23 16:57:58;;;;;;;;;;;;;;;-15.73;47.25;98592.69;6325461;28;19924;-65
2022/01/23 17:01:06;;;;;;;;;;;;;;;-15.84;48.73;98588.59;6331191;28;20336;-63
2022/01/23 17:04:10;;;;;;;;;;;;;;;-15.90;49.38;98593.25;6331842;28;19924;-65
2022/01/23 17:07:11;;;;;;;;;;;;;;;-15.94;48.51;98577.00;6330496;28;20581;-62
2022/01/23 17:10:14;;;;;;;;;;;;;;;-15.99;48.92;98593.50;6327257;28;19967;-61
2022/01/23 17:13:18;;;;;;;;;;;;;;;-16.01;47.59;98584.97;6325612;28;19920;-64
2022/01/23 17:16:20;;;;;;;;;;;;;;;-16.07;47.37;98584.56;6325158;28;20389;-62
2022/01/23 17:19:21;;;;;;;;;;;;;;;-16.15;47.38;98590.75;6328790;28;19953;-63
2022/01/23 17:22:25;;;;;;;;;;;;;;;-16.22;48.33;98589.44;6326664;28;19924;-64
2022/01/23 17:25:26;;;;;;;;;;;;;;;-16.23;47.15;98590.22;6331170;28;19935;-65
2022/01/23 17:28:27;;;;;;;;;;;;;;;-16.36;47.03;98587.66;6329924;28;20281;-63
2022/01/23 17:31:30;;;;;;;;;;;;;;;-16.44;49.31;98592.19;6328845;28;19923;-62
2022/01/23 17:34:31;;;;;;;;;;;;;;;-16.39;49.97;98579.91;6325256;28;19939;-63
2022/01/23 17:37:32;;;;;;;;;;;;;;;-16.32;48.84;98589.63;6321830;28;20073;-62
2022/01/23 17:40:35;;;;;;;;;;;;;;;-16.27;48.91;98594.94;6326970;28;19924;-63
2022/01/23 17:43:38;;;;;;;;;;;;;;;-16.21;49.65;98590.34;6320882;28;19920;-64
2022/01/23 17:46:44;;;;;;;;;;;;;;;-16.17;51.06;98592.28;6329028;28;19923;-63
2022/01/23 17:49:57;;;;;;;;;;;;;;;-16.10;51.13;98604.53;6326079;28;20058;-64
2022/01/23 17:52:58;;;;;;;;;;;;;;;-16.10;54.04;98600.38;6333495;28;19931;-62
2022/01/23 17:56:02;;;;;;;;;;;;;;;-16.02;54.75;98598.31;6332381;28;19942;-61
2022/01/23 17:59:04;;;;;;;;;;;;;;;-16.02;54.88;98603.38;6334737;28;19924;-63
2022/01/23 18:02:10;;;;;;;;;;;;;;;-16.03;54.12;98601.63;6327463;28;19924;-59
2022/01/23 18:05:11;;;;;;;;;;;;;;;-16.11;52.90;98606.16;6328270;28;19924;-62
2022/01/23 18:08:12;;;;;;;;;;;;;;;-16.26;54.82;98616.88;6333164;28;19924;-62
2022/01/23 18:11:13;;;;;;;;;;;;;;;-16.38;52.29;98620.31;6315320;28;19924;-63
2022/01/23 18:14:17;;;;;;;;;;;;;;;-16.50;51.92;98616.97;6326046;28;19985;-60
2022/01/23 18:17:24;;;;;;;;;;;;;;;-16.61;51.45;98615.38;6346973;28;19923;-62
2022/01/23 18:20:30;;;;;;;;;;;;;;;-16.69;53.14;98621.53;6335170;28;19928;-62
2022/01/23 18:23:31;;;;;;;;;;;;;;;-16.76;53.49;98623.59;6332982;28;20385;-62
2022/01/23 18:26:32;;;;;;;;;;;;;;;-16.78;52.41;98627.72;6330829;28;19931;-61
2022/01/23 18:29:33;;;;;;;;;;;;;;;-16.84;53.65;98624.78;6329771;28;19924;-62
2022/01/23 18:32:36;;;;;;;;;;;;;;;-16.86;52.88;98630.47;6328109;28;19931;-62
2022/01/23 18:35:37;;;;;;;;;;;;;;;-16.90;51.88;98629.34;6330135;28;19957;-61
2022/01/23 18:38:39;;;;;;;;;;;;;;;-16.98;51.64;98631.38;6318127;28;20290;-62
2022/01/23 18:41:49;;;;;;;;;;;;;;;-17.03;51.59;98634.31;6331725;27;19949;-65
2022/01/23 18:44:51;;;;;;;;;;;;;;;-17.05;50.54;98639.25;6331503;28;19928;-61
2022/01/23 18:47:53;;;;;;;;;;;;;;;-17.11;49.64;98637.94;6332863;28;19924;-61
2022/01/23 18:50:58;;;;;;;;;;;;;;;-17.21;49.37;98642.34;6335628;28;20310;-63
2022/01/23 18:54:07;;;;;;;;;;;;;;;-17.27;49.72;98636.84;6332623;28;20288;-64
2022/01/23 18:57:18;;;;;;;;;;;;;;;-17.30;49.33;98626.56;6336135;28;19931;-65
2022/01/23 19:00:22;;;;;;;;;;;;;;;-17.35;49.76;98630.41;6334955;28;20476;-66